Time;durP1;ratioP1;P1;durP2;ratioP2;P2;SDS_P1;SDS_P2;PMS_P1;PMS_P2;Temp;Humidity;BMP_temperature;BMP_pressure;BME280_temperature;BME280_humidity;BME280_pressure;Samples;Min_cycle;Max_cycle;Signal;HPM_P1;HPM_P2
2022/11/12 00:02:03;;;;;;;;;;;;;;;10.86;100.00;102231.56;6312078;22;20348;-82
2022/11/12 00:04:47;;;;;;;;;;;;;;;10.79;100.00;102221.56;6314151;22;19933;-80
2022/11/12 00:07:31;;;;;;;;;;;;;;;10.80;100.00;102221.41;6311959;22;19918;-80
2022/11/12 00:10:15;;;;;;;;;;;;;;;10.92;100.00;102218.75;6311767;22;20315;-81
2022/11/12 00:12:59;;;;;;;;;;;;;;;10.81;100.00;102220.47;6292962;22;19972;-80
2022/11/12 00:15:44;;;;;;;;;;;;;;;10.65;100.00;102212.03;6314477;22;20357;-81
2022/11/12 00:18:27;;;;;;;;;;;;;;;10.34;100.00;102213.59;6316108;22;19978;-82
2022/11/12 00:21:11;;;;;;;;;;;;;;;10.27;100.00;102214.22;6317425;22;19953;-83
2022/11/12 00:23:58;;;;;;;;;;;;;;;10.25;100.00;102214.31;6324977;22;19959;-81
2022/11/12 00:26:42;;;;;;;;;;;;;;;10.21;100.00;102217.31;6324038;22;19930;-81
2022/11/12 00:29:26;;;;;;;;;;;;;;;10.18;100.00;102212.25;6325966;22;19922;-84
2022/11/12 00:32:11;;;;;;;;;;;;;;;10.30;100.00;102208.66;6329495;22;19918;-80
2022/11/12 00:34:55;;;;;;;;;;;;;;;10.21;100.00;102204.06;6325749;22;19921;-83
2022/11/12 00:37:39;;;;;;;;;;;;;;;10.40;100.00;102208.78;6325022;22;20013;-82
2022/11/12 00:40:24;;;;;;;;;;;;;;;10.43;100.00;102200.59;6323777;22;19983;-80
2022/11/12 00:43:08;;;;;;;;;;;;;;;10.46;100.00;102201.22;6323414;22;20030;-82
2022/11/12 00:45:52;;;;;;;;;;;;;;;10.54;100.00;102198.78;6321283;22;20333;-82
2022/11/12 00:48:36;;;;;;;;;;;;;;;10.60;100.00;102198.31;6321551;22;19959;-80
2022/11/12 00:51:20;;;;;;;;;;;;;;;10.60;100.00;102200.13;6298448;22;20229;-81
2022/11/12 00:54:05;;;;;;;;;;;;;;;10.52;100.00;102200.72;6320051;22;19933;-83
2022/11/12 00:56:49;;;;;;;;;;;;;;;10.33;100.00;102189.88;6296669;22;19922;-81
2022/11/12 00:59:33;;;;;;;;;;;;;;;10.53;100.00;102201.56;6320598;22;19953;-81
2022/11/12 01:02:18;;;;;;;;;;;;;;;10.58;100.00;102197.56;6318540;22;19947;-81
2022/11/12 01:05:02;;;;;;;;;;;;;;;10.64;100.00;102194.44;6329475;22;19937;-83
2022/11/12 01:07:46;;;;;;;;;;;;;;;10.60;100.00;102197.47;6327678;22;19917;-83
2022/11/12 01:10:30;;;;;;;;;;;;;;;10.34;100.00;102192.38;6303800;22;19960;-81
2022/11/12 01:13:14;;;;;;;;;;;;;;;10.48;100.00;102193.13;6324769;22;19930;-81
2022/11/12 01:15:58;;;;;;;;;;;;;;;10.16;100.00;102198.28;6325202;22;19957;-82
2022/11/12 01:18:42;;;;;;;;;;;;;;;10.16;100.00;102201.78;6323911;22;19926;-83
2022/11/12 01:21:29;;;;;;;;;;;;;;;9.94;100.00;102211.47;6320517;22;19922;-80
2022/11/12 01:24:13;;;;;;;;;;;;;;;10.07;100.00;102198.97;6323965;22;19972;-82
2022/11/12 01:26:58;;;;;;;;;;;;;;;10.14;100.00;102205.53;6326012;22;19918;-82
2022/11/12 01:29:42;;;;;;;;;;;;;;;10.07;100.00;102198.97;6302154;22;19981;-82
2022/11/12 01:32:27;;;;;;;;;;;;;;;10.05;100.00;102195.59;6320659;22;19918;-81
2022/11/12 01:35:11;;;;;;;;;;;;;;;10.07;100.00;102191.88;6322915;22;19918;-82
2022/11/12 01:37:55;;;;;;;;;;;;;;;10.09;100.00;102184.63;6315910;22;19933;-82
2022/11/12 01:40:39;;;;;;;;;;;;;;;9.96;100.00;102186.53;6313925;22;20296;-83
2022/11/12 01:43:23;;;;;;;;;;;;;;;10.10;100.00;102189.00;6316222;22;20015;-81
2022/11/12 01:46:15;;;;;;;;;;;;;;;9.93;100.00;102189.44;6317296;22;19937;-82
2022/11/12 01:49:01;;;;;;;;;;;;;;;10.02;100.00;102182.56;6316892;22;19918;-83
2022/11/12 01:51:47;;;;;;;;;;;;;;;10.06;100.00;102184.03;6321955;22;19921;-82
2022/11/12 01:54:32;;;;;;;;;;;;;;;10.06;100.00;102171.63;6301002;22;19934;-81
2022/11/12 01:57:17;;;;;;;;;;;;;;;10.07;100.00;102183.06;6324550;22;19975;-82
2022/11/12 02:00:06;;;;;;;;;;;;;;;10.25;100.00;102169.28;6324590;22;20341;-82
2022/11/12 02:02:56;;;;;;;;;;;;;;;10.17;100.00;102162.91;6322657;22;19917;-83
2022/11/12 02:05:41;;;;;;;;;;;;;;;10.21;100.00;102169.63;6319103;22;19918;-86
2022/11/12 02:08:26;;;;;;;;;;;;;;;10.13;100.00;102164.06;6323797;22;20010;-82
2022/11/12 02:11:12;;;;;;;;;;;;;;;10.22;100.00;102158.06;6322917;22;19937;-83
2022/11/12 02:13:56;;;;;;;;;;;;;;;10.18;100.00;102156.63;6322479;22;19918;-81
2022/11/12 02:16:42;;;;;;;;;;;;;;;10.02;100.00;102148.13;6300297;22;19932;-82
2022/11/12 02:19:26;;;;;;;;;;;;;;;10.21;100.00;102143.97;6325584;22;19936;-83
2022/11/12 02:22:10;;;;;;;;;;;;;;;10.25;100.00;102139.28;6325262;22;19937;-81
2022/11/12 02:24:54;;;;;;;;;;;;;;;10.07;100.00;102130.09;6317666;22;19964;-86
2022/11/12 02:27:38;;;;;;;;;;;;;;;9.92;100.00;102131.28;6323140;22;19933;-83
2022/11/12 02:30:34;;;;;;;;;;;;;;;9.90;100.00;102122.63;6324928;22;19918;-80
2022/11/12 02:33:19;;;;;;;;;;;;;;;9.99;100.00;102127.19;6324763;22;19926;-82
2022/11/12 02:36:03;;;;;;;;;;;;;;;9.94;100.00;102124.06;6325139;22;19926;-81
2022/11/12 02:38:47;;;;;;;;;;;;;;;10.07;100.00;102124.81;6321046;22;19972;-80
2022/11/12 02:41:31;;;;;;;;;;;;;;;9.77;100.00;102120.91;6316975;22;19942;-81
2022/11/12 02:44:15;;;;;;;;;;;;;;;9.98;100.00;102109.59;6329132;22;19941;-82
2022/11/12 02:46:59;;;;;;;;;;;;;;;10.19;100.00;102113.25;6326946;22;19932;-81
2022/11/12 02:49:43;;;;;;;;;;;;;;;9.96;100.00;102116.84;6313603;22;19918;-82
2022/11/12 02:52:27;;;;;;;;;;;;;;;10.06;100.00;102113.34;6310273;22;19933;-82
2022/11/12 02:55:11;;;;;;;;;;;;;;;10.09;100.00;102118.41;6287399;22;19917;-81
2022/11/12 02:57:58;;;;;;;;;;;;;;;10.29;100.00;102111.56;6311754;22;19957;-80
2022/11/12 03:00:43;;;;;;;;;;;;;;;10.37;100.00;102111.81;6317523;22;19986;-82
2022/11/12 03:03:27;;;;;;;;;;;;;;;10.23;100.00;102114.72;6321741;22;20074;-80
2022/11/12 03:06:11;;;;;;;;;;;;;;;10.46;100.00;102110.25;6323069;22;19985;-83
2022/11/12 03:08:55;;;;;;;;;;;;;;;10.28;100.00;102104.59;6323151;22;19917;-82
2022/11/12 03:11:39;;;;;;;;;;;;;;;10.24;100.00;102105.81;6323274;22;19937;-82
2022/11/12 03:14:23;;;;;;;;;;;;;;;10.10;100.00;102108.66;6323672;22;19913;-82
2022/11/12 03:17:07;;;;;;;;;;;;;;;9.93;100.00;102101.19;6322188;22;19937;-81
2022/11/12 03:19:51;;;;;;;;;;;;;;;10.04;100.00;102099.38;6325536;22;19972;-81
2022/11/12 03:22:36;;;;;;;;;;;;;;;9.93;100.00;102095.88;6323597;22;19941;-80
2022/11/12 03:25:20;;;;;;;;;;;;;;;9.98;100.00;102094.56;6300992;22;19954;-81
2022/11/12 03:28:06;;;;;;;;;;;;;;;10.09;100.00;102091.91;6324986;22;19917;-82
2022/11/12 03:30:49;;;;;;;;;;;;;;;10.06;100.00;102092.16;6325788;22;19922;-81
2022/11/12 03:33:33;;;;;;;;;;;;;;;10.21;100.00;102090.13;6325929;22;19918;-82
2022/11/12 03:36:17;;;;;;;;;;;;;;;10.29;100.00;102088.56;6326953;22;20372;-80
2022/11/12 03:39:01;;;;;;;;;;;;;;;10.26;100.00;102087.97;6326609;22;19934;-82
2022/11/12 03:41:45;;;;;;;;;;;;;;;10.31;100.00;102085.78;6326637;22;19959;-80
2022/11/12 03:44:29;;;;;;;;;;;;;;;10.29;100.00;102082.44;6325058;22;19921;-81
2022/11/12 03:47:13;;;;;;;;;;;;;;;10.17;100.00;102088.72;6323664;22;19929;-82
2022/11/12 03:49:57;;;;;;;;;;;;;;;10.19;100.00;102084.13;6317260;22;19918;-81
2022/11/12 03:52:45;;;;;;;;;;;;;;;10.12;100.00;102078.44;6324663;22;19998;-84
2022/11/12 03:55:29;;;;;;;;;;;;;;;9.92;100.00;102078.31;6327175;22;19921;-81
2022/11/12 03:58:13;;;;;;;;;;;;;;;10.06;100.00;102072.78;6325239;22;19922;-80
2022/11/12 04:00:57;;;;;;;;;;;;;;;10.30;100.00;102074.38;6316484;22;19934;-82
2022/11/12 04:03:41;;;;;;;;;;;;;;;10.02;100.00;102073.97;6311835;22;19918;-88
2022/11/12 04:09:28;;;;;;;;;;;;;;;9.74;100.00;102070.81;6321218;22;19918;-81
2022/11/12 04:15:15;;;;;;;;;;;;;;;9.82;100.00;102067.59;6313165;22;19967;-82
2022/11/12 04:24:05;;;;;;;;;;;;;;;9.98;100.00;102048.69;6312034;22;19968;-81
2022/11/12 04:26:49;;;;;;;;;;;;;;;10.19;100.00;102045.22;6287499;22;19918;-83
2022/11/12 04:32:37;;;;;;;;;;;;;;;10.14;100.00;102042.09;6327983;22;19922;-81
2022/11/12 04:35:22;;;;;;;;;;;;;;;10.12;100.00;102053.75;6327655;22;19918;-81
2022/11/12 04:38:07;;;;;;;;;;;;;;;9.83;100.00;102048.94;6301566;22;19918;-82
2022/11/12 04:46:58;;;;;;;;;;;;;;;10.08;100.00;102047.00;6324077;22;19918;-82
2022/11/12 04:49:43;;;;;;;;;;;;;;;9.77;100.00;102036.19;6316217;22;19917;-83
2022/11/12 04:52:27;;;;;;;;;;;;;;;10.07;100.00;102034.75;6311754;22;19919;-80
2022/11/12 04:55:11;;;;;;;;;;;;;;;10.03;100.00;102036.78;6310422;22;20324;-82
2022/11/12 04:57:55;;;;;;;;;;;;;;;9.92;100.00;102046.53;6309685;22;19921;-80
2022/11/12 05:00:39;;;;;;;;;;;;;;;9.88;100.00;102038.81;6310809;22;19933;-83
2022/11/12 05:03:23;;;;;;;;;;;;;;;9.81;100.00;102034.97;6313337;22;19930;-82
2022/11/12 05:06:50;;;;;;;;;;;;;;;9.91;100.00;102036.91;6311240;22;19969;-81
2022/11/12 05:09:12;;;;;;;;;;;;;;;9.99;100.00;102034.50;6311546;22;19961;-82
2022/11/12 05:11:56;;;;;;;;;;;;;;;10.16;100.00;102039.31;6310817;22;19933;-80
2022/11/12 05:14:40;;;;;;;;;;;;;;;10.20;100.00;102035.47;6311123;22;19957;-83
2022/11/12 05:17:24;;;;;;;;;;;;;;;10.16;100.00;102034.03;6311169;22;19997;-81
2022/11/12 05:20:13;;;;;;;;;;;;;;;10.16;100.00;102040.19;6311731;22;19917;-83
2022/11/12 05:22:57;;;;;;;;;;;;;;;10.04;100.00;102038.44;6311485;22;19986;-82
2022/11/12 05:25:41;;;;;;;;;;;;;;;9.82;100.00;102034.00;6309933;22;20250;-82
2022/11/12 05:28:25;;;;;;;;;;;;;;;10.05;100.00;102039.28;6309799;22;19922;-82
2022/11/12 05:31:08;;;;;;;;;;;;;;;10.06;100.00;102038.34;6310149;22;19986;-82
2022/11/12 05:33:52;;;;;;;;;;;;;;;10.05;100.00;102031.34;6309410;22;19933;-82
2022/11/12 05:36:37;;;;;;;;;;;;;;;10.09;100.00;102027.50;6309775;22;19949;-82
2022/11/12 05:39:21;;;;;;;;;;;;;;;10.06;100.00;102022.44;6309562;22;19957;-82
2022/11/12 05:42:05;;;;;;;;;;;;;;;9.85;100.00;102025.84;6309621;22;19968;-82
2022/11/12 05:44:49;;;;;;;;;;;;;;;9.74;100.00;102023.16;6310520;22;19998;-81
2022/11/12 05:47:33;;;;;;;;;;;;;;;9.65;100.00;102023.91;6287464;22;19941;-84
2022/11/12 05:50:17;;;;;;;;;;;;;;;9.60;100.00;102026.06;6310315;22;19993;-81
2022/11/12 05:53:01;;;;;;;;;;;;;;;9.37;100.00;102024.34;6309464;22;19957;-85
2022/11/12 05:55:45;;;;;;;;;;;;;;;9.39;100.00;102027.72;6309162;22;19922;-82
2022/11/12 05:58:31;;;;;;;;;;;;;;;9.26;100.00;102034.91;6310344;22;19937;-83
2022/11/12 06:01:15;;;;;;;;;;;;;;;9.41;100.00;102033.75;6309764;22;19969;-84
2022/11/12 06:03:59;;;;;;;;;;;;;;;9.53;100.00;102035.44;6310211;22;19918;-84
2022/11/12 06:06:43;;;;;;;;;;;;;;;9.34;100.00;102040.47;6312366;22;20337;-87
2022/11/12 06:09:27;;;;;;;;;;;;;;;9.45;100.00;102032.53;6322005;22;19949;-88
2022/11/12 06:12:11;;;;;;;;;;;;;;;9.27;100.00;102036.59;6319180;22;19941;-87
2022/11/12 06:14:56;;;;;;;;;;;;;;;9.35;100.00;102031.56;6309668;22;19961;-85
2022/11/12 06:17:40;;;;;;;;;;;;;;;9.38;100.00;102036.59;6311053;22;19917;-87
2022/11/12 06:20:25;;;;;;;;;;;;;;;9.26;100.00;102032.25;6312355;22;19918;-84
2022/11/12 06:23:09;;;;;;;;;;;;;;;9.25;100.00;102030.56;6292215;22;19933;-84
2022/11/12 06:25:53;;;;;;;;;;;;;;;9.26;100.00;102029.63;6313529;22;19918;-83
2022/11/12 06:28:37;;;;;;;;;;;;;;;9.41;100.00;102030.25;6310883;22;19941;-86
2022/11/12 06:31:21;;;;;;;;;;;;;;;9.32;100.00;102026.50;6312887;22;19917;-85
2022/11/12 06:34:05;;;;;;;;;;;;;;;9.46;100.00;102028.94;6317759;22;19925;-84
2022/11/12 06:36:52;;;;;;;;;;;;;;;9.53;100.00;102034.59;6314697;22;19963;-89
2022/11/12 06:39:36;;;;;;;;;;;;;;;9.43;100.00;102018.59;6312345;22;19980;-85
2022/11/12 06:42:20;;;;;;;;;;;;;;;9.64;100.00;102019.59;6316176;22;19918;-87
2022/11/12 06:45:04;;;;;;;;;;;;;;;9.55;100.00;102028.22;6313074;22;19938;-91
2022/11/12 06:47:48;;;;;;;;;;;;;;;9.53;100.00;102024.84;6313292;22;19962;-89
2022/11/12 06:50:32;;;;;;;;;;;;;;;9.60;100.00;102019.94;6318530;22;19918;-91
2022/11/12 06:53:17;;;;;;;;;;;;;;;9.67;100.00;102031.72;6287358;22;19917;-89
2022/11/12 06:56:02;;;;;;;;;;;;;;;9.60;100.00;102031.38;6318481;22;19959;-92
2022/11/12 06:58:46;;;;;;;;;;;;;;;9.65;100.00;102041.56;6312867;22;20383;-89
2022/11/12 07:01:30;;;;;;;;;;;;;;;9.59;100.00;102045.56;6311924;22;19964;-88
2022/11/12 07:04:14;;;;;;;;;;;;;;;9.51;100.00;102036.53;6312205;22;19921;-90
2022/11/12 07:06:59;;;;;;;;;;;;;;;9.52;100.00;102038.19;6309608;22;20351;-86
2022/11/12 07:09:43;;;;;;;;;;;;;;;9.62;100.00;102032.06;6311137;22;19918;-82
2022/11/12 07:12:27;;;;;;;;;;;;;;;9.64;100.00;102032.81;6309869;22;19998;-88
2022/11/12 07:15:11;;;;;;;;;;;;;;;9.66;100.00;102025.59;6309842;22;20004;-85
2022/11/12 07:17:55;;;;;;;;;;;;;;;9.72;100.00;102018.97;6311031;22;19997;-86
2022/11/12 07:20:39;;;;;;;;;;;;;;;9.74;100.00;102009.13;6310176;22;20398;-88
2022/11/12 07:23:23;;;;;;;;;;;;;;;9.76;100.00;102005.38;6311967;22;19933;-83
2022/11/12 07:26:11;;;;;;;;;;;;;;;9.92;100.00;102005.00;6286140;22;20063;-84
2022/11/12 07:28:55;;;;;;;;;;;;;;;9.90;100.00;102001.66;6311319;22;19917;-84
2022/11/12 07:31:40;;;;;;;;;;;;;;;10.00;100.00;101996.47;6313842;22;19918;-84
2022/11/12 07:34:24;;;;;;;;;;;;;;;10.00;100.00;101988.50;6320135;22;19921;-82
2022/11/12 07:37:09;;;;;;;;;;;;;;;10.01;100.00;101992.84;6293007;22;19921;-87
2022/11/12 07:39:52;;;;;;;;;;;;;;;9.96;100.00;101995.00;6310498;22;19956;-85
2022/11/12 07:42:36;;;;;;;;;;;;;;;9.92;100.00;101994.41;6311297;22;19921;-86
2022/11/12 07:45:20;;;;;;;;;;;;;;;9.88;100.00;101988.50;6313422;22;19922;-85
2022/11/12 07:48:04;;;;;;;;;;;;;;;9.97;100.00;102002.00;6311401;22;19994;-85
2022/11/12 07:50:48;;;;;;;;;;;;;;;9.82;100.00;101994.31;6316040;22;19957;-85
2022/11/12 07:53:33;;;;;;;;;;;;;;;9.84;100.00;101988.91;6314468;22;19917;-85
2022/11/12 07:56:18;;;;;;;;;;;;;;;9.99;100.00;101995.59;6289269;22;19941;-83
2022/11/12 07:59:02;;;;;;;;;;;;;;;10.00;100.00;101989.34;6315740;22;19917;-87
2022/11/12 08:01:47;;;;;;;;;;;;;;;10.03;100.00;101985.63;6312057;22;19956;-84
2022/11/12 08:04:30;;;;;;;;;;;;;;;10.00;100.00;101975.28;6312593;22;19994;-84
2022/11/12 08:07:14;;;;;;;;;;;;;;;10.02;100.00;101981.28;6312325;22;19945;-84
2022/11/12 08:09:58;;;;;;;;;;;;;;;10.10;100.00;101973.56;6311403;22;19921;-85
2022/11/12 08:12:42;;;;;;;;;;;;;;;10.42;100.00;101973.63;6312743;22;20344;-85
2022/11/12 08:15:26;;;;;;;;;;;;;;;10.44;100.00;101975.16;6315300;22;20388;-83
2022/11/12 08:18:13;;;;;;;;;;;;;;;10.58;100.00;101977.53;6289385;22;19937;-83
2022/11/12 08:21:01;;;;;;;;;;;;;;;10.79;100.00;101975.75;6319765;22;20302;-84
2022/11/12 08:24:08;;;;;;;;;;;;;;;10.74;100.00;101972.63;6316584;22;19962;-93
2022/11/12 08:26:53;;;;;;;;;;;;;;;10.80;100.00;101996.00;6314784;22;19926;-86
2022/11/12 08:29:37;;;;;;;;;;;;;;;11.13;100.00;102005.63;6268782;22;19993;-83
2022/11/12 08:32:21;;;;;;;;;;;;;;;11.07;100.00;102005.28;6313524;22;19917;-83
2022/11/12 08:35:05;;;;;;;;;;;;;;;10.89;100.00;102011.16;6313758;22;20291;-81
2022/11/12 08:37:49;;;;;;;;;;;;;;;10.95;100.00;102016.91;6311198;22;19925;-83
2022/11/12 08:40:32;;;;;;;;;;;;;;;11.05;100.00;102012.53;6311626;22;19937;-84
2022/11/12 08:43:20;;;;;;;;;;;;;;;10.83;100.00;102018.78;6289641;22;19914;-85
2022/11/12 08:46:04;;;;;;;;;;;;;;;10.90;100.00;102010.16;6289482;22;20391;-84
2022/11/12 08:48:48;;;;;;;;;;;;;;;10.90;100.00;101999.56;6311921;22;19914;-83
2022/11/12 08:51:32;;;;;;;;;;;;;;;10.92;100.00;102001.25;6312972;22;19918;-85
2022/11/12 08:54:16;;;;;;;;;;;;;;;10.85;100.00;101996.47;6316314;22;20324;-84
2022/11/12 08:57:00;;;;;;;;;;;;;;;10.86;100.00;101998.16;6318190;22;19918;-82
2022/11/12 08:59:44;;;;;;;;;;;;;;;11.02;100.00;101997.72;6318698;22;19960;-83
2022/11/12 09:02:28;;;;;;;;;;;;;;;10.89;100.00;101997.91;6314817;22;19917;-82
2022/11/12 09:05:12;;;;;;;;;;;;;;;10.89;100.00;102010.31;6312379;22;19961;-83
2022/11/12 09:08:23;;;;;;;;;;;;;;;10.86;100.00;102018.53;6311502;22;19972;-84
2022/11/12 09:11:07;;;;;;;;;;;;;;;10.93;100.00;102024.16;6312270;22;19965;-86
2022/11/12 09:13:52;;;;;;;;;;;;;;;11.02;100.00;102012.78;6310416;22;19938;-84
2022/11/12 09:16:36;;;;;;;;;;;;;;;11.11;100.00;102006.69;6287897;22;20005;-85
2022/11/12 09:19:20;;;;;;;;;;;;;;;11.18;100.00;101997.25;6288040;22;19981;-83
2022/11/12 09:22:04;;;;;;;;;;;;;;;11.23;100.00;101995.06;6296386;22;19922;-84
2022/11/12 09:24:48;;;;;;;;;;;;;;;11.27;100.00;101983.19;6311641;22;19939;-83
2022/11/12 09:27:32;;;;;;;;;;;;;;;11.27;100.00;101986.69;6310980;22;20405;-83
2022/11/12 09:30:16;;;;;;;;;;;;;;;11.27;100.00;101993.81;6311372;22;19921;-84
2022/11/12 09:33:00;;;;;;;;;;;;;;;11.37;100.00;101986.75;6312224;22;19932;-84
2022/11/12 09:35:44;;;;;;;;;;;;;;;11.39;100.00;101990.13;6311360;22;19917;-82
2022/11/12 09:38:29;;;;;;;;;;;;;;;11.43;100.00;101988.03;6288842;22;19929;-85
2022/11/12 09:41:19;;;;;;;;;;;;;;;11.65;100.00;101999.34;6311735;22;19992;-83
2022/11/12 09:44:05;;;;;;;;;;;;;;;11.55;100.00;101990.47;6311552;22;19961;-84
2022/11/12 09:47:02;;;;;;;;;;;;;;;11.71;100.00;101993.53;6288676;22;19922;-84
2022/11/12 09:49:56;;;;;;;;;;;;;;;11.77;100.00;102000.94;6311161;22;19922;-84
2022/11/12 09:52:42;;;;;;;;;;;;;;;11.85;100.00;101997.63;6310174;22;19941;-85
2022/11/12 09:55:35;;;;;;;;;;;;;;;11.86;100.00;101996.66;6310927;22;20404;-85
2022/11/12 09:58:19;;;;;;;;;;;;;;;11.97;100.00;101996.53;6308839;22;19960;-82
2022/11/12 10:01:12;;;;;;;;;;;;;;;12.07;100.00;102001.88;6310109;22;19921;-83
2022/11/12 10:04:08;;;;;;;;;;;;;;;11.99;100.00;101991.09;6264716;22;19921;-87
2022/11/12 10:06:52;;;;;;;;;;;;;;;12.23;100.00;101980.97;6308328;22;20372;-84
2022/11/12 10:09:39;;;;;;;;;;;;;;;12.43;100.00;101982.66;6309781;22;20025;-86
2022/11/12 10:12:41;;;;;;;;;;;;;;;12.49;100.00;101981.28;6309184;22;19917;-83
2022/11/12 10:18:46;;;;;;;;;;;;;;;12.65;100.00;101979.75;6309114;22;19918;-84
2022/11/12 10:21:33;;;;;;;;;;;;;;;12.49;100.00;101976.81;6308778;22;19918;-87
2022/11/12 10:24:19;;;;;;;;;;;;;;;12.38;100.00;101953.00;6315749;22;19918;-83
2022/11/12 10:27:36;;;;;;;;;;;;;;;12.39;100.00;101949.34;6287388;22;19922;-84
2022/11/12 10:30:21;;;;;;;;;;;;;;;12.42;100.00;101943.75;6254598;22;19922;-85
2022/11/12 10:33:09;;;;;;;;;;;;;;;12.46;100.00;101934.53;6309452;22;19918;-84
2022/11/12 10:35:54;;;;;;;;;;;;;;;12.47;100.00;101933.53;6310381;22;19918;-82
2022/11/12 10:38:41;;;;;;;;;;;;;;;12.47;100.00;101936.19;6314347;22;19945;-83
2022/11/12 10:41:26;;;;;;;;;;;;;;;12.45;100.00;101924.88;6301286;22;19953;-82
2022/11/12 10:44:13;;;;;;;;;;;;;;;12.59;100.00;101929.78;6330660;22;19925;-88
2022/11/12 10:47:24;;;;;;;;;;;;;;;12.49;100.00;101926.28;6315906;22;19917;-87
2022/11/12 10:50:08;;;;;;;;;;;;;;;12.51;100.00;101928.78;6290348;22;19917;-88
2022/11/12 10:53:01;;;;;;;;;;;;;;;12.60;100.00;101926.09;6314227;22;19953;-85
2022/11/12 10:55:59;;;;;;;;;;;;;;;12.61;100.00;101916.31;6317117;22;19929;-90
2022/11/12 10:58:43;;;;;;;;;;;;;;;12.57;100.00;101926.41;6295767;22;19937;-90
2022/11/12 11:01:30;;;;;;;;;;;;;;;12.68;100.00;101912.97;6318774;22;19942;-89
2022/11/12 11:04:17;;;;;;;;;;;;;;;12.65;100.00;101897.28;6319256;22;19968;-91
2022/11/12 11:07:04;;;;;;;;;;;;;;;12.78;100.00;101892.50;6291917;22;19963;-91
2022/11/12 11:09:59;;;;;;;;;;;;;;;12.69;100.00;101892.53;6293585;22;19921;-90
2022/11/12 11:12:43;;;;;;;;;;;;;;;12.91;100.00;101882.38;6296329;22;20344;-90
2022/11/12 11:15:27;;;;;;;;;;;;;;;12.77;100.00;101874.84;6319974;22;19905;-92
2022/11/12 11:18:11;;;;;;;;;;;;;;;12.71;100.00;101875.44;6302660;22;19976;-90
2022/11/12 11:21:12;;;;;;;;;;;;;;;12.96;100.00;101880.13;6310982;22;19921;-88
2022/11/12 11:24:20;;;;;;;;;;;;;;;12.87;100.00;101859.69;6315759;22;19943;-88
2022/11/12 11:27:07;;;;;;;;;;;;;;;12.90;100.00;101856.75;6322554;22;20050;-89
2022/11/12 11:29:57;;;;;;;;;;;;;;;12.91;100.00;101860.25;6321111;22;20361;-89
2022/11/12 11:33:00;;;;;;;;;;;;;;;13.00;100.00;101863.88;6318986;22;19952;-90
2022/11/12 11:35:54;;;;;;;;;;;;;;;13.12;100.00;101862.75;6316491;22;20314;-92
2022/11/12 11:39:01;;;;;;;;;;;;;;;13.27;100.00;101856.78;6316870;22;19956;-89
2022/11/12 11:42:05;;;;;;;;;;;;;;;13.29;100.00;101865.47;6322710;22;19933;-92
2022/11/12 11:45:08;;;;;;;;;;;;;;;13.34;100.00;101862.38;6298700;22;19937;-89
2022/11/12 11:47:58;;;;;;;;;;;;;;;13.30;100.00;101853.00;6304255;22;19921;-87
2022/11/12 11:51:01;;;;;;;;;;;;;;;13.31;100.00;101846.69;6320583;22;19909;-90
2022/11/12 11:54:04;;;;;;;;;;;;;;;13.44;100.00;101847.19;6323389;22;19932;-88
2022/11/12 11:56:50;;;;;;;;;;;;;;;13.45;100.00;101848.88;6330757;22;19958;-89
2022/11/12 11:59:54;;;;;;;;;;;;;;;13.55;100.00;101848.81;6321896;22;19998;-88
2022/11/12 12:02:57;;;;;;;;;;;;;;;13.57;100.00;101837.00;6320054;22;19928;-83
2022/11/12 12:05:43;;;;;;;;;;;;;;;13.47;100.00;101833.56;6296836;22;20337;-84
2022/11/12 12:08:30;;;;;;;;;;;;;;;13.56;100.00;101823.81;6301485;22;19963;-86
2022/11/12 12:14:20;;;;;;;;;;;;;;;13.76;100.00;101826.22;6323570;22;19960;-86
2022/11/12 12:17:16;;;;;;;;;;;;;;;13.81;100.00;101829.28;6318862;22;19959;-89
2022/11/12 12:20:16;;;;;;;;;;;;;;;13.73;100.00;101810.53;6290902;22;19918;-88
2022/11/12 12:23:21;;;;;;;;;;;;;;;13.69;100.00;101803.84;6290272;22;19913;-82
2022/11/12 12:26:16;;;;;;;;;;;;;;;13.87;100.00;101799.38;6289810;22;19921;-88
2022/11/12 12:29:06;;;;;;;;;;;;;;;13.70;100.00;101796.69;6312607;22;19914;-85
2022/11/12 12:31:54;;;;;;;;;;;;;;;13.80;100.00;101790.31;6291937;22;19938;-85
2022/11/12 12:34:47;;;;;;;;;;;;;;;13.81;100.00;101784.00;6320436;22;19937;-86
2022/11/12 12:37:31;;;;;;;;;;;;;;;13.82;100.00;101772.31;6314722;22;19995;-88
2022/11/12 12:40:21;;;;;;;;;;;;;;;14.07;100.00;101759.22;6313102;22;19922;-88
2022/11/12 12:43:17;;;;;;;;;;;;;;;14.16;100.00;101763.59;6314032;22;19985;-85
2022/11/12 12:46:02;;;;;;;;;;;;;;;14.11;100.00;101760.59;6316400;22;19965;-87
2022/11/12 12:48:50;;;;;;;;;;;;;;;14.23;100.00;101757.50;6317260;22;19925;-85
2022/11/12 12:51:35;;;;;;;;;;;;;;;14.34;100.00;101765.31;6315054;22;19959;-85
2022/11/12 12:54:34;;;;;;;;;;;;;;;14.26;100.00;101753.69;6317622;22;19917;-86
2022/11/12 12:57:27;;;;;;;;;;;;;;;14.18;100.00;101756.31;6289323;22;19917;-85
2022/11/12 13:00:23;;;;;;;;;;;;;;;14.01;100.00;101757.16;6312537;22;19917;-84
2022/11/12 13:03:10;;;;;;;;;;;;;;;14.06;100.00;101760.19;6312718;22;19968;-86
2022/11/12 13:06:07;;;;;;;;;;;;;;;14.23;100.00;101759.34;6312724;22;19922;-85
2022/11/12 13:09:16;;;;;;;;;;;;;;;14.29;100.00;101748.03;6293404;22;19921;-86
2022/11/12 13:15:10;;;;;;;;;;;;;;;14.30;100.00;101741.72;6318189;22;19930;-84
2022/11/12 13:17:54;;;;;;;;;;;;;;;14.31;100.00;101733.56;6315021;22;20238;-83
2022/11/12 13:20:40;;;;;;;;;;;;;;;14.21;100.00;101732.00;6320289;22;19933;-87
2022/11/12 13:24:04;;;;;;;;;;;;;;;14.35;100.00;101729.63;6315147;22;19918;-84
2022/11/12 13:27:06;;;;;;;;;;;;;;;14.57;100.00;101725.59;6318431;22;19965;-84
2022/11/12 13:29:51;;;;;;;;;;;;;;;14.51;100.00;101715.56;6321685;22;19917;-83
2022/11/12 13:32:40;;;;;;;;;;;;;;;14.63;100.00;101708.94;6324063;22;19917;-85
2022/11/12 13:35:43;;;;;;;;;;;;;;;14.59;100.00;101712.06;6323257;22;19942;-86
2022/11/12 13:38:27;;;;;;;;;;;;;;;14.35;100.00;101710.94;6319223;22;19918;-82
2022/11/12 13:41:11;;;;;;;;;;;;;;;14.28;100.00;101715.22;6312632;22;19922;-86
2022/11/12 13:43:56;;;;;;;;;;;;;;;14.28;100.00;101717.06;6294849;22;19918;-86
2022/11/12 13:46:43;;;;;;;;;;;;;;;14.36;100.00;101719.78;6295461;22;20002;-87
2022/11/12 13:49:28;;;;;;;;;;;;;;;14.46;100.00;101705.34;6317844;22;20333;-84
2022/11/12 13:52:14;;;;;;;;;;;;;;;14.36;100.00;101691.28;6316667;22;19956;-86
2022/11/12 13:55:06;;;;;;;;;;;;;;;14.19;100.00;101696.63;6316709;22;19996;-85
2022/11/12 13:57:51;;;;;;;;;;;;;;;14.07;100.00;101687.25;6318071;22;19918;-85
2022/11/12 14:00:35;;;;;;;;;;;;;;;14.36;100.00;101679.78;6317618;22;20259;-83
2022/11/12 14:03:19;;;;;;;;;;;;;;;14.40;100.00;101679.31;6321645;22;19925;-85
2022/11/12 14:06:07;;;;;;;;;;;;;;;14.27;100.00;101686.03;6321772;22;19922;-85
2022/11/12 14:08:59;;;;;;;;;;;;;;;14.15;100.00;101688.13;6316303;22;19937;-85
2022/11/12 14:11:52;;;;;;;;;;;;;;;14.37;100.00;101692.97;6321701;22;19917;-87
2022/11/12 14:14:54;;;;;;;;;;;;;;;14.11;100.00;101691.28;6314458;22;20389;-87
2022/11/12 14:17:44;;;;;;;;;;;;;;;14.07;100.00;101695.22;6313446;22;19957;-90
2022/11/12 14:20:35;;;;;;;;;;;;;;;14.38;100.00;101691.94;6291826;22;20332;-85
2022/11/12 14:23:24;;;;;;;;;;;;;;;14.24;100.00;101681.88;6320125;22;19957;-86
2022/11/12 14:26:09;;;;;;;;;;;;;;;13.97;100.00;101679.34;6317310;22;19921;-83
2022/11/12 14:28:56;;;;;;;;;;;;;;;13.97;100.00;101679.34;6315195;22;20268;-86
2022/11/12 14:31:40;;;;;;;;;;;;;;;14.13;100.00;101679.44;6318120;22;20285;-85
2022/11/12 14:34:31;;;;;;;;;;;;;;;14.25;100.00;101674.72;6293816;22;20648;-83
2022/11/12 14:37:48;;;;;;;;;;;;;;;14.52;100.00;101669.19;6325150;22;19917;-83
2022/11/12 14:40:37;;;;;;;;;;;;;;;14.15;100.00;101673.97;6240430;22;19929;-84